sensor_id;sensor_type;location;lat;lon;timestamp;temperature;humidity
41060;DHT22;26811;53.160;8.202;2023-05-10T00:03:01;14.40;99.90
41060;DHT22;26811;53.160;8.202;2023-05-10T00:08:04;14.40;99.90
41060;DHT22;26811;53.160;8.202;2023-05-10T00:13:05;14.40;99.90
41060;DHT22;26811;53.160;8.202;2023-05-10T00:18:05;14.40;99.90
41060;DHT22;26811;53.160;8.202;2023-05-10T00:23:06;14.50;99.90
41060;DHT22;26811;53.160;8.202;2023-05-10T00:28:06;14.50;99.90
41060;DHT22;26811;53.160;8.202;2023-05-10T00:33:07;14.60;99.90
41060;DHT22;26811;53.160;8.202;2023-05-10T00:38:07;14.60;99.90
41060;DHT22;26811;53.160;8.202;2023-05-10T00:43:08;14.60;99.90
41060;DHT22;26811;53.160;8.202;2023-05-10T00:48:09;14.60;99.90
41060;DHT22;26811;53.160;8.202;2023-05-10T00:53:10;14.60;99.90
41060;DHT22;26811;53.160;8.202;2023-05-10T00:58:11;14.60;99.90
41060;DHT22;26811;53.160;8.202;2023-05-10T01:03:12;14.50;99.90
41060;DHT22;26811;53.160;8.202;2023-05-10T01:08:13;14.50;99.90
41060;DHT22;26811;53.160;8.202;2023-05-10T01:13:18;14.40;99.90
41060;DHT22;26811;53.160;8.202;2023-05-10T01:18:24;14.40;99.90
41060;DHT22;26811;53.160;8.202;2023-05-10T01:23:36;14.40;99.90
41060;DHT22;26811;53.160;8.202;2023-05-10T01:34:23;14.30;99.90
41060;DHT22;26811;53.160;8.202;2023-05-10T01:39:36;14.20;99.90
41060;DHT22;26811;53.160;8.202;2023-05-10T01:44:49;14.30;99.90
41060;DHT22;26811;53.160;8.202;2023-05-10T01:49:54;14.30;99.90
41060;DHT22;26811;53.160;8.202;2023-05-10T01:55:16;14.30;99.90
41060;DHT22;26811;53.160;8.202;2023-05-10T02:00:19;14.20;99.90
41060;DHT22;26811;53.160;8.202;2023-05-10T02:05:21;14.20;99.90
41060;DHT22;26811;53.160;8.202;2023-05-10T02:10:22;14.20;99.90
41060;DHT22;26811;53.160;8.202;2023-05-10T02:15:23;14.20;99.90
41060;DHT22;26811;53.160;8.202;2023-05-10T02:20:26;14.20;99.90
41060;DHT22;26811;53.160;8.202;2023-05-10T02:25:27;14.20;99.90
41060;DHT22;26811;53.160;8.202;2023-05-10T02:30:29;14.20;99.90
41060;DHT22;26811;53.160;8.202;2023-05-10T02:35:32;14.30;99.90
41060;DHT22;26811;53.160;8.202;2023-05-10T02:40:34;14.30;99.90
41060;DHT22;26811;53.160;8.202;2023-05-10T02:45:37;14.30;99.90
41060;DHT22;26811;53.160;8.202;2023-05-10T02:50:43;14.40;99.90
41060;DHT22;26811;53.160;8.202;2023-05-10T02:55:45;14.40;99.90
41060;DHT22;26811;53.160;8.202;2023-05-10T03:00:49;14.30;99.90
41060;DHT22;26811;53.160;8.202;2023-05-10T03:05:50;14.40;99.90
41060;DHT22;26811;53.160;8.202;2023-05-10T03:16:15;14.40;99.90
41060;DHT22;26811;53.160;8.202;2023-05-10T03:21:18;14.40;99.90
41060;DHT22;26811;53.160;8.202;2023-05-10T03:26:28;14.40;99.90
41060;DHT22;26811;53.160;8.202;2023-05-10T03:31:30;14.40;99.90
41060;DHT22;26811;53.160;8.202;2023-05-10T03:36:30;14.50;99.90
41060;DHT22;26811;53.160;8.202;2023-05-10T03:41:31;14.50;99.90
41060;DHT22;26811;53.160;8.202;2023-05-10T03:46:31;14.40;99.90
41060;DHT22;26811;53.160;8.202;2023-05-10T03:51:32;14.40;99.90
41060;DHT22;26811;53.160;8.202;2023-05-10T03:56:33;14.30;99.90
41060;DHT22;26811;53.160;8.202;2023-05-10T04:01:34;14.30;99.90
41060;DHT22;26811;53.160;8.202;2023-05-10T04:06:34;14.20;99.90
41060;DHT22;26811;53.160;8.202;2023-05-10T04:11:35;14.10;99.90
41060;DHT22;26811;53.160;8.202;2023-05-10T04:34:53;13.80;99.90
41060;DHT22;26811;53.160;8.202;2023-05-10T04:39:56;13.80;99.90
41060;DHT22;26811;53.160;8.202;2023-05-10T04:44:57;13.80;99.90
41060;DHT22;26811;53.160;8.202;2023-05-10T04:49:58;13.70;99.90
41060;DHT22;26811;53.160;8.202;2023-05-10T04:54:59;13.70;99.90
41060;DHT22;26811;53.160;8.202;2023-05-10T05:00:00;13.60;99.90
41060;DHT22;26811;53.160;8.202;2023-05-10T05:05:00;13.60;99.90
41060;DHT22;26811;53.160;8.202;2023-05-10T05:10:01;13.50;99.90
41060;DHT22;26811;53.160;8.202;2023-05-10T05:15:02;13.60;99.90
41060;DHT22;26811;53.160;8.202;2023-05-10T05:20:05;13.50;99.90
41060;DHT22;26811;53.160;8.202;2023-05-10T05:25:06;13.40;99.90
41060;DHT22;26811;53.160;8.202;2023-05-10T05:30:07;13.30;99.90
41060;DHT22;26811;53.160;8.202;2023-05-10T05:35:08;13.30;99.90
41060;DHT22;26811;53.160;8.202;2023-05-10T05:40:12;13.30;99.90
41060;DHT22;26811;53.160;8.202;2023-05-10T05:45:13;13.30;99.90
41060;DHT22;26811;53.160;8.202;2023-05-10T05:50:13;13.30;99.90
41060;DHT22;26811;53.160;8.202;2023-05-10T05:55:14;13.40;99.90
41060;DHT22;26811;53.160;8.202;2023-05-10T06:00:15;13.40;99.90
41060;DHT22;26811;53.160;8.202;2023-05-10T06:05:15;13.50;99.90
41060;DHT22;26811;53.160;8.202;2023-05-10T06:10:16;13.50;99.90
41060;DHT22;26811;53.160;8.202;2023-05-10T06:15:16;13.40;99.90
41060;DHT22;26811;53.160;8.202;2023-05-10T06:20:17;13.40;99.90
41060;DHT22;26811;53.160;8.202;2023-05-10T06:25:18;13.50;99.90
41060;DHT22;26811;53.160;8.202;2023-05-10T06:30:18;13.40;99.90
41060;DHT22;26811;53.160;8.202;2023-05-10T06:35:19;13.50;99.90
41060;DHT22;26811;53.160;8.202;2023-05-10T06:40:20;13.60;99.90
41060;DHT22;26811;53.160;8.202;2023-05-10T06:45:20;13.70;99.90
41060;DHT22;26811;53.160;8.202;2023-05-10T06:50:21;13.80;99.90
41060;DHT22;26811;53.160;8.202;2023-05-10T06:55:22;13.80;99.90
41060;DHT22;26811;53.160;8.202;2023-05-10T07:00:22;13.70;99.90
41060;DHT22;26811;53.160;8.202;2023-05-10T07:05:26;13.80;99.90
41060;DHT22;26811;53.160;8.202;2023-05-10T07:10:28;13.80;99.90
41060;DHT22;26811;53.160;8.202;2023-05-10T07:15:28;13.80;99.90
41060;DHT22;26811;53.160;8.202;2023-05-10T07:20:30;13.90;99.90
41060;DHT22;26811;53.160;8.202;2023-05-10T07:25:30;13.90;99.90
41060;DHT22;26811;53.160;8.202;2023-05-10T07:30:31;13.80;99.90
41060;DHT22;26811;53.160;8.202;2023-05-10T07:35:31;13.70;99.90
41060;DHT22;26811;53.160;8.202;2023-05-10T07:40:32;13.70;99.90
41060;DHT22;26811;53.160;8.202;2023-05-10T07:45:33;13.80;99.90
41060;DHT22;26811;53.160;8.202;2023-05-10T07:50:34;13.70;99.90
41060;DHT22;26811;53.160;8.202;2023-05-10T07:55:37;13.60;99.90
41060;DHT22;26811;53.160;8.202;2023-05-10T08:00:38;13.70;99.90
41060;DHT22;26811;53.160;8.202;2023-05-10T08:05:40;13.70;99.90
41060;DHT22;26811;53.160;8.202;2023-05-10T08:10:41;13.60;99.90
41060;DHT22;26811;53.160;8.202;2023-05-10T08:15:42;13.60;99.90
41060;DHT22;26811;53.160;8.202;2023-05-10T08:20:42;13.60;99.90
41060;DHT22;26811;53.160;8.202;2023-05-10T08:25:43;13.80;99.90
41060;DHT22;26811;53.160;8.202;2023-05-10T08:30:43;14.00;99.90
41060;DHT22;26811;53.160;8.202;2023-05-10T08:35:44;14.10;99.90
41060;DHT22;26811;53.160;8.202;2023-05-10T08:40:44;14.00;99.90
41060;DHT22;26811;53.160;8.202;2023-05-10T08:45:45;13.90;99.90
41060;DHT22;26811;53.160;8.202;2023-05-10T08:50:48;13.90;99.90
41060;DHT22;26811;53.160;8.202;2023-05-10T08:55:49;14.00;99.90
41060;DHT22;26811;53.160;8.202;2023-05-10T09:00:50;14.10;99.90
41060;DHT22;26811;53.160;8.202;2023-05-10T09:05:53;14.20;99.90
41060;DHT22;26811;53.160;8.202;2023-05-10T09:10:56;14.20;99.90
41060;DHT22;26811;53.160;8.202;2023-05-10T09:15:56;14.20;99.90
41060;DHT22;26811;53.160;8.202;2023-05-10T09:20:58;14.10;99.90
41060;DHT22;26811;53.160;8.202;2023-05-10T09:26:02;14.00;99.90
41060;DHT22;26811;53.160;8.202;2023-05-10T09:31:04;14.00;99.90
41060;DHT22;26811;53.160;8.202;2023-05-10T09:36:08;14.10;99.90
41060;DHT22;26811;53.160;8.202;2023-05-10T09:41:19;14.10;99.90
41060;DHT22;26811;53.160;8.202;2023-05-10T09:46:21;14.10;99.90
41060;DHT22;26811;53.160;8.202;2023-05-10T09:51:24;14.20;99.90
41060;DHT22;26811;53.160;8.202;2023-05-10T09:56:35;14.30;99.90
41060;DHT22;26811;53.160;8.202;2023-05-10T10:01:36;14.50;99.90
41060;DHT22;26811;53.160;8.202;2023-05-10T10:06:40;14.90;99.90
41060;DHT22;26811;53.160;8.202;2023-05-10T10:11:41;15.60;99.90
41060;DHT22;26811;53.160;8.202;2023-05-10T10:16:41;16.10;99.90
41060;DHT22;26811;53.160;8.202;2023-05-10T10:21:42;15.70;99.90
41060;DHT22;26811;53.160;8.202;2023-05-10T10:26:43;15.40;99.90
41060;DHT22;26811;53.160;8.202;2023-05-10T10:32:10;15.10;99.90
41060;DHT22;26811;53.160;8.202;2023-05-10T10:37:13;15.30;99.90
41060;DHT22;26811;53.160;8.202;2023-05-10T10:42:13;15.10;99.90
41060;DHT22;26811;53.160;8.202;2023-05-10T10:52:27;14.50;99.90
41060;DHT22;26811;53.160;8.202;2023-05-10T10:57:43;14.70;99.90
41060;DHT22;26811;53.160;8.202;2023-05-10T11:02:46;14.90;99.90
41060;DHT22;26811;53.160;8.202;2023-05-10T11:07:58;14.90;99.90
41060;DHT22;26811;53.160;8.202;2023-05-10T11:13:07;15.20;99.90
41060;DHT22;26811;53.160;8.202;2023-05-10T11:18:23;15.40;99.90
41060;DHT22;26811;53.160;8.202;2023-05-10T11:23:28;15.40;99.90
41060;DHT22;26811;53.160;8.202;2023-05-10T11:28:30;15.50;99.90
41060;DHT22;26811;53.160;8.202;2023-05-10T11:33:30;15.30;99.90
41060;DHT22;26811;53.160;8.202;2023-05-10T11:38:42;15.00;99.90
41060;DHT22;26811;53.160;8.202;2023-05-10T11:43:43;14.70;99.90
41060;DHT22;26811;53.160;8.202;2023-05-10T11:48:51;14.60;99.90
41060;DHT22;26811;53.160;8.202;2023-05-10T11:53:56;14.60;99.90
41060;DHT22;26811;53.160;8.202;2023-05-10T11:58:57;14.60;99.90
41060;DHT22;26811;53.160;8.202;2023-05-10T12:03:59;14.40;99.90
41060;DHT22;26811;53.160;8.202;2023-05-10T12:09:05;14.30;99.90
41060;DHT22;26811;53.160;8.202;2023-05-10T12:14:07;14.20;99.90
41060;DHT22;26811;53.160;8.202;2023-05-10T12:19:08;14.30;99.90
41060;DHT22;26811;53.160;8.202;2023-05-10T12:24:09;14.40;99.90
41060;DHT22;26811;53.160;8.202;2023-05-10T12:29:15;14.30;99.90
41060;DHT22;26811;53.160;8.202;2023-05-10T12:34:26;14.40;99.90
41060;DHT22;26811;53.160;8.202;2023-05-10T12:39:41;14.30;99.90
41060;DHT22;26811;53.160;8.202;2023-05-10T12:44:41;14.40;99.90
41060;DHT22;26811;53.160;8.202;2023-05-10T12:49:42;14.50;99.90
41060;DHT22;26811;53.160;8.202;2023-05-10T12:54:42;14.70;99.90
41060;DHT22;26811;53.160;8.202;2023-05-10T12:59:43;15.10;99.90
41060;DHT22;26811;53.160;8.202;2023-05-10T13:04:44;15.10;99.90
41060;DHT22;26811;53.160;8.202;2023-05-10T13:09:46;15.10;99.90
41060;DHT22;26811;53.160;8.202;2023-05-10T13:14:47;15.30;99.90
41060;DHT22;26811;53.160;8.202;2023-05-10T13:19:47;15.30;99.90
41060;DHT22;26811;53.160;8.202;2023-05-10T13:24:48;15.20;99.90
41060;DHT22;26811;53.160;8.202;2023-05-10T13:29:48;15.10;99.90
41060;DHT22;26811;53.160;8.202;2023-05-10T13:34:49;15.00;99.90
41060;DHT22;26811;53.160;8.202;2023-05-10T13:39:49;14.90;99.90
41060;DHT22;26811;53.160;8.202;2023-05-10T13:44:50;14.80;99.90
41060;DHT22;26811;53.160;8.202;2023-05-10T13:49:51;14.90;99.90
41060;DHT22;26811;53.160;8.202;2023-05-10T13:54:52;15.20;99.90
41060;DHT22;26811;53.160;8.202;2023-05-10T13:59:55;15.70;99.90
41060;DHT22;26811;53.160;8.202;2023-05-10T14:04:55;16.00;99.90
41060;DHT22;26811;53.160;8.202;2023-05-10T14:09:56;16.10;99.90
41060;DHT22;26811;53.160;8.202;2023-05-10T14:14:56;15.90;99.90
41060;DHT22;26811;53.160;8.202;2023-05-10T14:19:58;15.60;99.90
41060;DHT22;26811;53.160;8.202;2023-05-10T14:24:59;15.40;99.90
41060;DHT22;26811;53.160;8.202;2023-05-10T14:30:00;15.10;99.90
41060;DHT22;26811;53.160;8.202;2023-05-10T14:35:01;15.00;99.90
41060;DHT22;26811;53.160;8.202;2023-05-10T14:40:01;15.10;99.90
41060;DHT22;26811;53.160;8.202;2023-05-10T14:45:03;15.20;99.90
41060;DHT22;26811;53.160;8.202;2023-05-10T14:50:04;15.50;99.90
41060;DHT22;26811;53.160;8.202;2023-05-10T14:55:06;15.80;99.90
41060;DHT22;26811;53.160;8.202;2023-05-10T15:00:07;15.80;99.90
41060;DHT22;26811;53.160;8.202;2023-05-10T15:05:07;15.80;99.90
41060;DHT22;26811;53.160;8.202;2023-05-10T15:10:09;15.60;99.90
41060;DHT22;26811;53.160;8.202;2023-05-10T15:15:09;15.50;99.90
41060;DHT22;26811;53.160;8.202;2023-05-10T15:20:10;15.50;99.90
41060;DHT22;26811;53.160;8.202;2023-05-10T15:25:11;15.40;99.90
41060;DHT22;26811;53.160;8.202;2023-05-10T15:30:12;15.60;99.90
41060;DHT22;26811;53.160;8.202;2023-05-10T15:35:13;15.80;99.90
41060;DHT22;26811;53.160;8.202;2023-05-10T15:40:14;16.00;99.90
41060;DHT22;26811;53.160;8.202;2023-05-10T15:45:15;16.10;99.90
41060;DHT22;26811;53.160;8.202;2023-05-10T15:50:15;16.20;99.90
41060;DHT22;26811;53.160;8.202;2023-05-10T15:55:16;16.20;99.90
41060;DHT22;26811;53.160;8.202;2023-05-10T16:00:17;16.20;99.90
41060;DHT22;26811;53.160;8.202;2023-05-10T16:05:18;16.20;99.90
41060;DHT22;26811;53.160;8.202;2023-05-10T16:10:18;16.30;99.90
41060;DHT22;26811;53.160;8.202;2023-05-10T16:15:19;16.30;99.90
41060;DHT22;26811;53.160;8.202;2023-05-10T16:20:21;16.40;99.90
41060;DHT22;26811;53.160;8.202;2023-05-10T16:25:21;16.30;99.90
41060;DHT22;26811;53.160;8.202;2023-05-10T16:30:22;16.20;99.90
41060;DHT22;26811;53.160;8.202;2023-05-10T16:35:24;16.10;99.90
41060;DHT22;26811;53.160;8.202;2023-05-10T16:40:25;16.00;99.90
41060;DHT22;26811;53.160;8.202;2023-05-10T16:45:26;16.00;99.90
41060;DHT22;26811;53.160;8.202;2023-05-10T16:50:26;15.90;99.90
41060;DHT22;26811;53.160;8.202;2023-05-10T16:55:27;15.80;99.90
41060;DHT22;26811;53.160;8.202;2023-05-10T17:00:27;15.80;99.90
41060;DHT22;26811;53.160;8.202;2023-05-10T17:05:28;15.70;99.90
41060;DHT22;26811;53.160;8.202;2023-05-10T17:10:28;15.50;99.90
41060;DHT22;26811;53.160;8.202;2023-05-10T17:15:29;15.30;99.90
41060;DHT22;26811;53.160;8.202;2023-05-10T17:20:30;15.20;99.90
41060;DHT22;26811;53.160;8.202;2023-05-10T17:25:30;15.10;99.90
41060;DHT22;26811;53.160;8.202;2023-05-10T17:30:31;15.00;99.90
41060;DHT22;26811;53.160;8.202;2023-05-10T17:35:32;15.00;99.90
41060;DHT22;26811;53.160;8.202;2023-05-10T17:40:32;15.00;99.90
41060;DHT22;26811;53.160;8.202;2023-05-10T17:45:33;15.00;99.90
41060;DHT22;26811;53.160;8.202;2023-05-10T17:50:33;15.00;99.90
41060;DHT22;26811;53.160;8.202;2023-05-10T17:55:34;15.00;99.90
41060;DHT22;26811;53.160;8.202;2023-05-10T18:00:35;15.00;99.90
41060;DHT22;26811;53.160;8.202;2023-05-10T18:05:37;15.00;99.90
41060;DHT22;26811;53.160;8.202;2023-05-10T18:10:38;15.00;99.90
41060;DHT22;26811;53.160;8.202;2023-05-10T18:15:39;14.90;99.90
41060;DHT22;26811;53.160;8.202;2023-05-10T18:20:40;14.80;99.90
41060;DHT22;26811;53.160;8.202;2023-05-10T18:25:40;14.70;99.90
41060;DHT22;26811;53.160;8.202;2023-05-10T18:30:41;14.50;99.90
41060;DHT22;26811;53.160;8.202;2023-05-10T18:35:42;14.40;99.90
41060;DHT22;26811;53.160;8.202;2023-05-10T18:40:42;14.30;99.90
41060;DHT22;26811;53.160;8.202;2023-05-10T18:45:43;14.20;99.90
41060;DHT22;26811;53.160;8.202;2023-05-10T18:50:43;14.10;99.90
41060;DHT22;26811;53.160;8.202;2023-05-10T18:55:44;14.10;99.90
41060;DHT22;26811;53.160;8.202;2023-05-10T19:00:44;14.00;99.90
41060;DHT22;26811;53.160;8.202;2023-05-10T19:05:45;13.80;99.90
41060;DHT22;26811;53.160;8.202;2023-05-10T19:10:48;13.70;99.90
41060;DHT22;26811;53.160;8.202;2023-05-10T19:16:02;13.60;99.90
41060;DHT22;26811;53.160;8.202;2023-05-10T19:21:03;13.60;99.90
41060;DHT22;26811;53.160;8.202;2023-05-10T19:26:08;13.70;99.90
41060;DHT22;26811;53.160;8.202;2023-05-10T19:31:08;13.80;99.90
41060;DHT22;26811;53.160;8.202;2023-05-10T19:36:09;13.80;99.90
41060;DHT22;26811;53.160;8.202;2023-05-10T19:41:09;13.90;99.90
41060;DHT22;26811;53.160;8.202;2023-05-10T19:46:10;13.90;99.90
41060;DHT22;26811;53.160;8.202;2023-05-10T19:51:11;13.90;99.90
41060;DHT22;26811;53.160;8.202;2023-05-10T19:56:12;13.90;99.90
41060;DHT22;26811;53.160;8.202;2023-05-10T20:01:13;13.90;99.90
41060;DHT22;26811;53.160;8.202;2023-05-10T20:06:13;13.90;99.90
41060;DHT22;26811;53.160;8.202;2023-05-10T20:11:14;13.90;99.90
41060;DHT22;26811;53.160;8.202;2023-05-10T20:16:15;13.90;99.90
41060;DHT22;26811;53.160;8.202;2023-05-10T20:21:16;13.80;99.90
41060;DHT22;26811;53.160;8.202;2023-05-10T20:26:16;13.80;99.90
41060;DHT22;26811;53.160;8.202;2023-05-10T20:31:17;13.70;99.90
41060;DHT22;26811;53.160;8.202;2023-05-10T20:36:17;13.60;99.90
41060;DHT22;26811;53.160;8.202;2023-05-10T20:41:18;13.50;99.90
41060;DHT22;26811;53.160;8.202;2023-05-10T20:46:27;13.40;99.90
41060;DHT22;26811;53.160;8.202;2023-05-10T20:51:28;13.30;99.90
41060;DHT22;26811;53.160;8.202;2023-05-10T20:56:30;13.10;99.90
41060;DHT22;26811;53.160;8.202;2023-05-10T21:01:33;13.00;99.90
41060;DHT22;26811;53.160;8.202;2023-05-10T21:06:34;12.80;99.90
41060;DHT22;26811;53.160;8.202;2023-05-10T21:11:34;12.80;99.90
41060;DHT22;26811;53.160;8.202;2023-05-10T21:16:35;12.60;99.90
41060;DHT22;26811;53.160;8.202;2023-05-10T21:21:36;12.60;99.90
41060;DHT22;26811;53.160;8.202;2023-05-10T21:26:36;12.50;99.90
41060;DHT22;26811;53.160;8.202;2023-05-10T21:31:37;12.50;99.90
41060;DHT22;26811;53.160;8.202;2023-05-10T21:36:37;12.60;99.90
41060;DHT22;26811;53.160;8.202;2023-05-10T21:41:38;12.70;99.90
41060;DHT22;26811;53.160;8.202;2023-05-10T21:46:39;12.80;99.90
41060;DHT22;26811;53.160;8.202;2023-05-10T21:51:39;12.80;99.90
41060;DHT22;26811;53.160;8.202;2023-05-10T21:56:40;12.90;99.90
41060;DHT22;26811;53.160;8.202;2023-05-10T22:01:40;12.80;99.90
41060;DHT22;26811;53.160;8.202;2023-05-10T22:06:42;12.80;99.90
41060;DHT22;26811;53.160;8.202;2023-05-10T22:11:44;12.70;99.90
41060;DHT22;26811;53.160;8.202;2023-05-10T22:16:44;12.70;99.90
41060;DHT22;26811;53.160;8.202;2023-05-10T22:21:45;12.70;99.90
41060;DHT22;26811;53.160;8.202;2023-05-10T22:26:46;12.70;99.90
41060;DHT22;26811;53.160;8.202;2023-05-10T22:31:46;12.70;99.90
41060;DHT22;26811;53.160;8.202;2023-05-10T22:36:47;12.70;99.90
41060;DHT22;26811;53.160;8.202;2023-05-10T22:41:48;12.80;99.90
41060;DHT22;26811;53.160;8.202;2023-05-10T22:46:49;12.90;99.90
41060;DHT22;26811;53.160;8.202;2023-05-10T22:51:49;12.90;99.90
41060;DHT22;26811;53.160;8.202;2023-05-10T22:56:50;13.00;99.90
41060;DHT22;26811;53.160;8.202;2023-05-10T23:01:50;13.00;99.90
41060;DHT22;26811;53.160;8.202;2023-05-10T23:06:51;13.00;99.90
41060;DHT22;26811;53.160;8.202;2023-05-10T23:11:52;13.00;99.90
41060;DHT22;26811;53.160;8.202;2023-05-10T23:16:53;13.00;99.90
41060;DHT22;26811;53.160;8.202;2023-05-10T23:21:53;13.00;99.90
41060;DHT22;26811;53.160;8.202;2023-05-10T23:26:54;12.90;99.90
41060;DHT22;26811;53.160;8.202;2023-05-10T23:31:54;12.80;99.90
41060;DHT22;26811;53.160;8.202;2023-05-10T23:36:55;12.80;99.90
41060;DHT22;26811;53.160;8.202;2023-05-10T23:41:55;12.70;99.90
41060;DHT22;26811;53.160;8.202;2023-05-10T23:46:56;12.70;99.90
41060;DHT22;26811;53.160;8.202;2023-05-10T23:51:56;12.70;99.90
41060;DHT22;26811;53.160;8.202;2023-05-10T23:56:57;12.70;99.90
